createdAt,value
2018-03-11T00:00:11.923Z,7.45
2018-03-11T00:01:13.334Z,7.30
2018-03-11T00:02:14.726Z,7.32
2018-03-11T00:03:16.132Z,7.37
2018-03-11T00:04:17.485Z,7.47
2018-03-11T00:05:18.873Z,7.37
2018-03-11T00:06:20.259Z,7.30
2018-03-11T00:07:21.644Z,7.32
2018-03-11T00:08:23.029Z,7.34
2018-03-11T00:09:24.393Z,7.41
2018-03-11T00:10:25.772Z,7.33
2018-03-11T00:11:27.258Z,7.45
2018-03-11T00:12:28.641Z,7.42
2018-03-11T00:13:30.016Z,7.41
2018-03-11T00:14:31.399Z,7.33
2018-03-11T00:15:32.777Z,7.47
2018-03-11T00:16:34.157Z,7.45
2018-03-11T00:17:35.540Z,7.33
2018-03-11T00:18:36.911Z,7.52
2018-03-11T00:19:38.286Z,7.41
2018-03-11T00:20:39.661Z,7.36
2018-03-11T00:21:41.039Z,7.42
2018-03-11T00:22:42.427Z,7.33
2018-03-11T00:23:43.810Z,7.32
2018-03-11T00:24:45.172Z,7.30
2018-03-11T00:25:46.560Z,7.34
2018-03-11T00:26:47.941Z,7.37
2018-03-11T00:27:49.321Z,7.30
2018-03-11T00:28:50.698Z,7.33
2018-03-11T00:29:52.087Z,7.26
2018-03-11T00:30:53.481Z,7.33
2018-03-11T00:31:54.859Z,7.26
2018-03-11T00:32:56.245Z,7.33
2018-03-11T00:33:57.638Z,7.12
2018-03-11T00:34:59.010Z,7.21
2018-03-11T00:36:00.401Z,7.23
2018-03-11T00:37:01.778Z,7.18
2018-03-11T00:38:03.152Z,7.27
2018-03-11T00:39:04.529Z,7.24
2018-03-11T00:40:05.946Z,7.29
2018-03-11T00:41:07.294Z,7.32
2018-03-11T00:42:08.675Z,7.27
2018-03-11T00:43:10.081Z,7.24
2018-03-11T00:44:11.447Z,7.27
2018-03-11T00:45:13.627Z,7.21
2018-03-11T00:46:15.020Z,7.23
2018-03-11T00:47:16.411Z,7.24
2018-03-11T00:48:17.780Z,7.19
2018-03-11T00:49:19.170Z,7.15
2018-03-11T00:50:21.333Z,7.29
2018-03-11T00:51:22.711Z,7.19
2018-03-11T00:52:24.102Z,7.26
2018-03-11T00:53:25.480Z,7.14
2018-03-11T00:54:26.885Z,7.19
2018-03-11T00:55:28.252Z,7.18
2018-03-11T00:56:29.620Z,7.18
2018-03-11T00:57:31.006Z,7.16
2018-03-11T00:58:32.393Z,7.21
2018-03-11T00:59:33.768Z,7.18
2018-03-11T01:00:35.150Z,7.21
2018-03-11T01:01:36.525Z,7.12
2018-03-11T01:02:37.903Z,7.24
2018-03-11T01:03:39.277Z,7.19
2018-03-11T01:04:40.639Z,7.21
2018-03-11T01:05:42.018Z,7.26
2018-03-11T01:06:43.397Z,7.26
2018-03-11T01:07:44.784Z,7.14
2018-03-11T01:08:47.045Z,7.21
2018-03-11T01:09:48.423Z,7.27
2018-03-11T01:10:49.818Z,7.32
2018-03-11T01:11:51.197Z,7.23
2018-03-11T01:12:52.573Z,7.15
2018-03-11T01:13:53.954Z,7.19
2018-03-11T01:14:55.334Z,7.14
2018-03-11T01:15:56.714Z,7.09
2018-03-11T01:16:58.090Z,7.16
2018-03-11T01:17:59.473Z,7.18
2018-03-11T01:19:01.612Z,7.19
2018-03-11T01:20:02.990Z,7.15
2018-03-11T01:21:04.334Z,7.16
2018-03-11T01:22:05.702Z,7.18
2018-03-11T01:23:07.075Z,7.12
2018-03-11T01:24:08.453Z,7.00
2018-03-11T01:25:09.832Z,7.09
2018-03-11T01:26:11.198Z,7.07
2018-03-11T01:27:12.579Z,7.05
2018-03-11T01:28:13.960Z,7.09
2018-03-11T01:29:15.332Z,7.05
2018-03-11T01:30:16.717Z,7.07
2018-03-11T01:31:18.084Z,7.01
2018-03-11T01:32:19.455Z,6.99
2018-03-11T01:33:20.847Z,7.04
2018-03-11T01:34:22.226Z,6.99
2018-03-11T01:35:23.611Z,6.96
2018-03-11T01:36:24.988Z,6.94
2018-03-11T01:37:26.359Z,7.00
2018-03-11T01:38:27.737Z,7.01
2018-03-11T01:39:29.119Z,6.93
2018-03-11T01:40:30.487Z,6.94
2018-03-11T01:41:31.853Z,6.96
2018-03-11T01:42:33.239Z,6.93
2018-03-11T01:43:34.620Z,6.97
2018-03-11T01:44:36.000Z,7.04
2018-03-11T01:45:37.382Z,6.90
2018-03-11T01:46:38.754Z,6.96
2018-03-11T01:47:40.144Z,6.93
2018-03-11T01:48:41.533Z,7.00
2018-03-11T01:49:42.891Z,7.01
2018-03-11T01:50:44.270Z,6.94
2018-03-11T01:51:45.643Z,7.00
2018-03-11T01:52:47.028Z,6.93
2018-03-11T01:53:48.404Z,6.97
2018-03-11T01:54:49.768Z,7.07
2018-03-11T01:55:51.148Z,7.04
2018-03-11T01:56:53.177Z,7.04
2018-03-11T01:57:54.551Z,7.00
2018-03-11T01:58:55.932Z,7.09
2018-03-11T01:59:57.320Z,7.00
2018-03-11T02:00:58.703Z,7.00
2018-03-11T02:02:00.057Z,7.09
2018-03-11T02:03:01.443Z,7.04
2018-03-11T02:04:02.819Z,7.07
2018-03-11T02:05:04.203Z,7.05
2018-03-11T02:06:05.589Z,7.01
2018-03-11T02:07:06.961Z,7.01
2018-03-11T02:08:08.336Z,7.04
2018-03-11T02:09:09.714Z,7.07
2018-03-11T02:10:11.101Z,7.00
2018-03-11T02:11:12.484Z,7.00
2018-03-11T02:12:13.859Z,7.00
2018-03-11T02:13:15.226Z,7.01
2018-03-11T02:14:16.602Z,7.12
2018-03-11T02:15:17.982Z,7.05
2018-03-11T02:16:19.358Z,7.09
2018-03-11T02:17:20.724Z,7.07
2018-03-11T02:18:22.120Z,7.00
2018-03-11T02:19:23.500Z,6.94
2018-03-11T02:20:24.872Z,6.97
2018-03-11T02:21:26.252Z,6.93
2018-03-11T02:22:28.408Z,6.94
2018-03-11T02:23:31.321Z,6.93
2018-03-11T02:24:32.702Z,6.97
2018-03-11T02:25:34.084Z,6.97
2018-03-11T02:26:35.473Z,7.00
2018-03-11T02:27:36.839Z,6.83
2018-03-11T02:28:38.227Z,6.83
2018-03-11T02:29:40.419Z,6.89
2018-03-11T02:30:41.799Z,6.78
2018-03-11T02:31:43.181Z,6.83
2018-03-11T02:32:44.574Z,6.87
2018-03-11T02:33:45.943Z,6.83
2018-03-11T02:34:47.324Z,6.83
2018-03-11T02:35:48.696Z,6.83
2018-03-11T02:36:50.076Z,6.87
2018-03-11T02:37:51.449Z,6.79
2018-03-11T02:38:52.840Z,6.75
2018-03-11T02:39:54.215Z,6.72
2018-03-11T02:40:55.594Z,6.71
2018-03-11T02:41:56.972Z,6.68
2018-03-11T02:42:58.361Z,6.68
2018-03-11T02:43:59.732Z,6.69
2018-03-11T02:45:01.108Z,6.75
2018-03-11T02:46:02.491Z,6.65
2018-03-11T02:47:03.896Z,6.61
2018-03-11T02:48:05.267Z,6.54
2018-03-11T02:49:06.715Z,6.57
2018-03-11T02:50:08.042Z,6.51
2018-03-11T02:51:09.412Z,6.58
2018-03-11T02:52:10.788Z,6.60
2018-03-11T02:53:12.173Z,6.55
2018-03-11T02:54:13.554Z,6.53
2018-03-11T02:55:14.925Z,6.54
2018-03-11T02:56:16.307Z,6.45
2018-03-11T02:57:17.677Z,6.51
2018-03-11T02:58:19.054Z,6.42
2018-03-11T02:59:20.434Z,6.40
2018-03-11T03:00:21.803Z,6.55
2018-03-11T03:01:23.186Z,6.57
2018-03-11T03:02:24.555Z,6.48
2018-03-11T03:03:25.937Z,6.45
2018-03-11T03:04:27.313Z,6.45
2018-03-11T03:05:28.689Z,6.45
2018-03-11T03:06:30.066Z,6.48
2018-03-11T03:07:32.152Z,6.38
2018-03-11T03:08:33.528Z,6.42
2018-03-11T03:09:34.906Z,6.42
2018-03-11T03:10:36.289Z,6.38
2018-03-11T03:11:37.663Z,6.36
2018-03-11T03:12:39.040Z,6.43
2018-03-11T03:13:40.426Z,6.45
2018-03-11T03:14:41.800Z,6.43
2018-03-11T03:15:43.174Z,6.43
2018-03-11T03:16:44.547Z,6.42
2018-03-11T03:17:45.922Z,6.48
2018-03-11T03:18:47.308Z,6.43
2018-03-11T03:19:48.681Z,6.40
2018-03-11T03:20:50.055Z,6.43
2018-03-11T03:21:51.427Z,6.43
2018-03-11T03:22:52.798Z,6.48
2018-03-11T03:23:54.180Z,6.38
2018-03-11T03:24:55.555Z,6.39
2018-03-11T03:25:56.932Z,6.42
2018-03-11T03:26:58.308Z,6.25
2018-03-11T03:27:59.685Z,6.36
2018-03-11T03:29:01.707Z,6.40
2018-03-11T03:30:03.105Z,6.27
2018-03-11T03:31:04.472Z,6.30
2018-03-11T03:32:05.855Z,6.21
2018-03-11T03:33:07.218Z,6.28
2018-03-11T03:34:08.597Z,6.28
2018-03-11T03:35:09.980Z,6.25
2018-03-11T03:36:11.349Z,6.28
2018-03-11T03:37:12.731Z,6.19
2018-03-11T03:38:14.111Z,6.32
2018-03-11T03:39:15.481Z,6.27
2018-03-11T03:40:16.856Z,6.17
2018-03-11T03:41:18.226Z,6.17
2018-03-11T03:42:19.610Z,6.11
2018-03-11T03:43:20.992Z,6.08
2018-03-11T03:44:22.368Z,6.13
2018-03-11T03:45:23.746Z,6.10
2018-03-11T03:46:25.113Z,6.10
2018-03-11T03:47:26.513Z,6.11
2018-03-11T03:48:27.886Z,6.16
2018-03-11T03:49:29.766Z,6.06
2018-03-11T03:50:30.601Z,6.16
2018-03-11T03:51:31.967Z,6.17
2018-03-11T03:52:33.351Z,6.13
2018-03-11T03:53:34.723Z,5.98
2018-03-11T03:54:36.101Z,6.05
2018-03-11T03:55:37.481Z,6.02
2018-03-11T03:56:38.863Z,5.99
2018-03-11T03:57:40.237Z,6.06
2018-03-11T03:58:41.619Z,5.99
2018-03-11T03:59:42.988Z,5.92
2018-03-11T04:00:44.367Z,6.01
2018-03-11T04:01:45.743Z,5.95
2018-03-11T04:02:47.123Z,5.93
2018-03-11T04:03:49.178Z,5.87
2018-03-11T04:04:50.561Z,5.88
2018-03-11T04:05:51.942Z,5.90
2018-03-11T04:06:53.310Z,5.88
2018-03-11T04:07:54.705Z,5.90
2018-03-11T04:08:56.076Z,5.83
2018-03-11T04:09:57.458Z,5.83
2018-03-11T04:10:58.826Z,5.93
2018-03-11T04:12:00.213Z,5.87
2018-03-11T04:13:01.589Z,5.87
2018-03-11T04:14:02.968Z,5.78
2018-03-11T04:15:04.367Z,5.84
2018-03-11T04:16:05.729Z,5.81
2018-03-11T04:17:07.092Z,5.84
2018-03-11T04:18:08.494Z,5.84
2018-03-11T04:19:09.865Z,5.88
2018-03-11T04:20:11.244Z,5.78
2018-03-11T04:21:13.329Z,5.77
2018-03-11T04:22:14.695Z,5.85
2018-03-11T04:23:16.065Z,5.84
2018-03-11T04:24:17.453Z,5.80
2018-03-11T04:25:18.829Z,5.83
2018-03-11T04:26:20.205Z,5.83
2018-03-11T04:27:21.583Z,5.84
2018-03-11T04:28:22.963Z,5.81
2018-03-11T04:29:24.338Z,5.81
2018-03-11T04:30:25.722Z,5.81
2018-03-11T04:31:27.097Z,5.70
2018-03-11T04:32:28.471Z,5.70
2018-03-11T04:33:29.842Z,5.73
2018-03-11T04:34:31.214Z,5.60
2018-03-11T04:35:32.593Z,5.65
2018-03-11T04:36:33.970Z,5.63
2018-03-11T04:37:35.346Z,5.69
2018-03-11T04:38:36.718Z,5.78
2018-03-11T04:39:38.082Z,5.67
2018-03-11T04:40:39.470Z,5.62
2018-03-11T04:41:40.840Z,5.66
2018-03-11T04:42:42.214Z,5.74
2018-03-11T04:43:43.613Z,5.63
2018-03-11T04:44:44.977Z,5.58
2018-03-11T04:45:46.365Z,5.65
2018-03-11T04:46:47.736Z,5.63
2018-03-11T04:47:49.110Z,5.56
2018-03-11T04:48:50.489Z,5.55
2018-03-11T04:49:51.860Z,5.63
2018-03-11T04:50:53.243Z,5.59
2018-03-11T04:51:54.615Z,5.56
2018-03-11T04:52:55.993Z,5.62
2018-03-11T04:53:57.368Z,5.58
2018-03-11T04:54:59.403Z,5.58
2018-03-11T04:56:00.797Z,5.52
2018-03-11T04:57:02.151Z,5.44
2018-03-11T04:58:03.527Z,5.41
2018-03-11T04:59:04.914Z,5.41
2018-03-11T05:00:06.290Z,5.40
2018-03-11T05:01:07.665Z,5.42
2018-03-11T05:02:09.043Z,5.48
2018-03-11T05:03:10.416Z,5.37
2018-03-11T05:04:11.783Z,5.40
2018-03-11T05:05:13.170Z,5.29
2018-03-11T05:06:15.406Z,5.37
2018-03-11T05:07:16.782Z,5.33
2018-03-11T05:08:18.158Z,5.42
2018-03-11T05:09:19.569Z,5.37
2018-03-11T05:10:20.917Z,5.27
2018-03-11T05:11:22.288Z,5.35
2018-03-11T05:12:23.677Z,5.40
2018-03-11T05:13:25.051Z,5.37
2018-03-11T05:14:26.426Z,5.40
2018-03-11T05:15:27.812Z,5.37
2018-03-11T05:16:29.185Z,5.44
2018-03-11T05:17:30.569Z,5.45
2018-03-11T05:18:31.953Z,5.45
2018-03-11T05:19:33.323Z,5.42
2018-03-11T05:20:34.693Z,5.35
2018-03-11T05:21:36.066Z,5.44
2018-03-11T05:22:37.438Z,5.37
2018-03-11T05:23:38.809Z,5.33
2018-03-11T05:24:40.196Z,5.32
2018-03-11T05:25:41.560Z,5.30
2018-03-11T05:26:42.950Z,5.30
2018-03-11T05:27:44.316Z,5.26
2018-03-11T05:28:45.693Z,5.24
2018-03-11T05:29:47.062Z,5.14
2018-03-11T05:30:48.434Z,5.22
2018-03-11T05:31:49.820Z,5.23
2018-03-11T05:32:51.193Z,5.20
2018-03-11T05:33:52.572Z,5.32
2018-03-11T05:34:54.908Z,5.17
2018-03-11T05:35:56.293Z,5.19
2018-03-11T05:36:57.674Z,5.19
2018-03-11T05:37:59.784Z,5.23
2018-03-11T05:39:00.379Z,5.22
2018-03-11T05:40:01.753Z,5.22
2018-03-11T05:41:03.157Z,5.27
2018-03-11T05:42:04.503Z,5.20
2018-03-11T05:43:05.898Z,5.30
2018-03-11T05:44:07.273Z,5.32
2018-03-11T05:45:08.654Z,5.30
2018-03-11T05:46:10.824Z,5.35
2018-03-11T05:47:12.201Z,5.35
2018-03-11T05:48:13.587Z,5.37
2018-03-11T05:49:14.977Z,5.41
2018-03-11T05:50:16.390Z,5.45
2018-03-11T05:51:17.777Z,5.47
2018-03-11T05:52:19.166Z,5.47
2018-03-11T05:53:20.540Z,5.45
2018-03-11T05:54:21.925Z,5.49
2018-03-11T05:55:23.314Z,5.52
2018-03-11T05:56:24.693Z,5.55
2018-03-11T05:57:26.084Z,5.51
2018-03-11T05:58:27.476Z,5.47
2018-03-11T05:59:28.854Z,5.38
2018-03-11T06:00:30.228Z,5.44
2018-03-11T06:01:31.606Z,5.52
2018-03-11T06:02:32.999Z,5.58
2018-03-11T06:03:34.383Z,5.62
2018-03-11T06:04:35.767Z,5.58
2018-03-11T06:05:37.093Z,5.62
2018-03-11T06:06:39.152Z,5.65
2018-03-11T06:07:40.539Z,5.67
2018-03-11T06:08:41.928Z,5.63
2018-03-11T06:09:43.317Z,5.66
2018-03-11T06:10:44.703Z,5.69
2018-03-11T06:11:46.078Z,5.80
2018-03-11T06:12:47.486Z,5.74
2018-03-11T06:13:48.875Z,5.77
2018-03-11T06:14:50.256Z,5.81
2018-03-11T06:15:51.651Z,5.87
2018-03-11T06:16:53.083Z,5.78
2018-03-11T06:17:54.408Z,5.83
2018-03-11T06:18:55.796Z,5.88
2018-03-11T06:19:57.198Z,5.83
2018-03-11T06:20:58.575Z,5.95
2018-03-11T06:21:59.960Z,5.98
2018-03-11T06:23:01.358Z,5.99
2018-03-11T06:24:02.737Z,6.05
2018-03-11T06:25:04.125Z,6.01
2018-03-11T06:26:05.524Z,6.03
2018-03-11T06:27:06.908Z,6.06
2018-03-11T06:28:08.287Z,6.17
2018-03-11T06:29:09.678Z,6.10
2018-03-11T06:30:11.074Z,6.13
2018-03-11T06:31:12.464Z,6.13
2018-03-11T06:32:13.846Z,6.08
2018-03-11T06:33:15.217Z,6.24
2018-03-11T06:34:16.602Z,6.32
2018-03-11T06:35:17.990Z,6.30
2018-03-11T06:36:19.380Z,6.40
2018-03-11T06:37:20.775Z,6.46
2018-03-11T06:38:22.157Z,6.51
2018-03-11T06:39:23.533Z,6.64
2018-03-11T06:40:24.912Z,6.69
2018-03-11T06:41:26.301Z,6.73
2018-03-11T06:42:27.688Z,6.86
2018-03-11T06:43:29.059Z,6.83
2018-03-11T06:44:30.451Z,6.93
2018-03-11T06:45:31.833Z,7.00
2018-03-11T06:46:33.219Z,7.05
2018-03-11T06:47:34.603Z,7.07
2018-03-11T06:48:36.003Z,7.14
2018-03-11T06:49:37.377Z,7.14
2018-03-11T06:50:38.775Z,7.19
2018-03-11T06:51:40.163Z,7.19
2018-03-11T06:52:41.547Z,7.29
2018-03-11T06:53:42.917Z,7.36
2018-03-11T06:54:44.306Z,7.33
2018-03-11T06:55:45.702Z,7.44
2018-03-11T06:56:47.087Z,7.42
2018-03-11T06:57:48.474Z,7.58
2018-03-11T06:58:49.847Z,7.62
2018-03-11T06:59:51.249Z,7.62
2018-03-11T07:00:52.622Z,7.76
2018-03-11T07:01:54.018Z,7.91
2018-03-11T07:02:55.408Z,7.99
2018-03-11T07:03:56.800Z,8.04
2018-03-11T07:05:38.114Z,8.07
2018-03-11T07:06:39.502Z,8.24
2018-03-11T07:07:40.880Z,8.31
2018-03-11T07:08:42.283Z,8.40
2018-03-11T07:09:43.661Z,8.39
2018-03-11T07:10:45.033Z,8.52
2018-03-11T07:11:46.415Z,8.54
2018-03-11T07:12:47.805Z,8.58
2018-03-11T07:13:49.181Z,8.76
2018-03-11T07:14:50.573Z,8.82
2018-03-11T07:15:51.969Z,8.86
2018-03-11T07:16:53.367Z,8.91
2018-03-11T07:17:54.747Z,8.82
2018-03-11T07:18:56.141Z,8.89
2018-03-11T07:19:57.545Z,9.03
2018-03-11T07:20:58.943Z,9.12
2018-03-11T07:22:00.329Z,9.38
2018-03-11T07:23:01.715Z,9.35
2018-03-11T07:24:03.088Z,9.24
2018-03-11T07:25:04.474Z,9.30
2018-03-11T07:26:05.852Z,9.27
2018-03-11T07:27:07.234Z,9.27
2018-03-11T07:28:08.633Z,9.37
2018-03-11T07:29:10.024Z,9.48
2018-03-11T07:30:11.410Z,9.44
2018-03-11T07:31:12.795Z,9.42
2018-03-11T07:32:14.192Z,9.52
2018-03-11T07:33:15.574Z,9.63
2018-03-11T07:34:16.956Z,9.77
2018-03-11T07:35:18.338Z,9.85
2018-03-11T07:36:19.729Z,10.20
2018-03-11T07:37:21.127Z,10.46
2018-03-11T07:38:22.515Z,10.84
2018-03-11T07:39:23.888Z,11.06
2018-03-11T07:40:25.286Z,11.13
2018-03-11T07:41:26.705Z,11.27
2018-03-11T07:42:28.064Z,11.33
2018-03-11T07:43:29.451Z,11.51
2018-03-11T07:44:30.839Z,11.62
2018-03-11T07:45:32.242Z,11.60
2018-03-11T07:46:34.236Z,11.70
2018-03-11T07:47:35.628Z,11.62
2018-03-11T07:48:37.017Z,11.60
2018-03-11T07:49:38.410Z,11.31
2018-03-11T07:50:39.795Z,11.30
2018-03-11T07:51:41.190Z,11.03
2018-03-11T07:52:42.570Z,10.98
2018-03-11T07:53:43.963Z,11.16
2018-03-11T07:54:45.344Z,11.24
2018-03-11T07:55:46.738Z,11.28
2018-03-11T07:56:48.133Z,11.36
2018-03-11T07:57:49.517Z,11.38
2018-03-11T07:58:50.904Z,11.42
2018-03-11T07:59:52.296Z,11.51
2018-03-11T08:00:53.683Z,11.67
2018-03-11T08:01:55.076Z,11.56
2018-03-11T08:02:56.464Z,11.70
2018-03-11T08:03:57.850Z,11.56
2018-03-11T08:04:59.237Z,11.72
2018-03-11T08:06:00.639Z,11.51
2018-03-11T08:07:02.021Z,11.56
2018-03-11T08:08:03.416Z,11.66
2018-03-11T08:09:05.336Z,11.70
2018-03-11T08:10:06.717Z,11.59
2018-03-11T08:11:08.098Z,11.56
2018-03-11T08:12:09.495Z,11.54
2018-03-11T08:13:10.902Z,11.46
2018-03-11T08:14:12.292Z,11.30
2018-03-11T08:15:13.676Z,11.23
2018-03-11T08:16:15.066Z,11.01
2018-03-11T08:17:16.460Z,10.98
2018-03-11T08:18:17.853Z,10.86
2018-03-11T08:19:19.235Z,10.99
2018-03-11T08:20:20.631Z,11.01
2018-03-11T08:21:22.085Z,11.01
2018-03-11T08:22:23.386Z,10.88
2018-03-11T08:23:24.800Z,11.02
2018-03-11T08:24:26.195Z,11.03
2018-03-11T08:25:27.592Z,11.03
2018-03-11T08:26:28.984Z,11.21
2018-03-11T08:27:30.368Z,11.13
2018-03-11T08:28:31.757Z,11.28
2018-03-11T08:29:33.151Z,11.64
2018-03-11T08:30:34.543Z,11.79
2018-03-11T08:31:35.937Z,11.81
2018-03-11T08:32:37.325Z,12.01
2018-03-11T08:33:38.712Z,11.81
2018-03-11T08:34:40.108Z,12.01
2018-03-11T08:35:41.497Z,12.22
2018-03-11T08:36:42.896Z,12.34
2018-03-11T08:37:44.281Z,12.40
2018-03-11T08:38:45.683Z,12.46
2018-03-11T08:39:47.060Z,12.48
2018-03-11T08:40:48.458Z,12.48
2018-03-11T08:41:49.859Z,12.62
2018-03-11T08:42:51.295Z,12.80
2018-03-11T08:43:52.645Z,13.38
2018-03-11T08:44:54.035Z,14.27
2018-03-11T08:45:55.424Z,15.03
2018-03-11T08:46:56.814Z,15.71
2018-03-11T08:47:58.209Z,16.25
2018-03-11T08:48:59.598Z,16.73
2018-03-11T08:50:00.999Z,17.33
2018-03-11T08:51:02.404Z,17.63
2018-03-11T08:52:03.805Z,18.23
2018-03-11T08:53:05.202Z,18.56
2018-03-11T08:54:06.591Z,18.69
2018-03-11T08:55:07.990Z,18.72
2018-03-11T08:56:09.382Z,19.39
2018-03-11T08:57:10.787Z,19.62
2018-03-11T08:58:12.192Z,20.15
2018-03-11T08:59:13.584Z,20.48
2018-03-11T09:00:14.986Z,21.09
2018-03-11T09:01:16.396Z,21.36
2018-03-11T09:02:17.802Z,21.71
2018-03-11T09:03:19.191Z,22.01
2018-03-11T09:04:20.587Z,22.24
2018-03-11T09:05:21.982Z,22.67
2018-03-11T09:06:23.385Z,22.94
2018-03-11T09:07:24.784Z,22.93
2018-03-11T09:08:26.191Z,23.00
2018-03-11T09:09:27.583Z,23.37
2018-03-11T09:10:29.028Z,23.59
2018-03-11T09:11:30.343Z,23.94
2018-03-11T09:12:31.704Z,24.49
2018-03-11T09:13:33.094Z,25.04
2018-03-11T09:14:34.495Z,24.98
2018-03-11T09:15:35.905Z,25.19
2018-03-11T09:16:37.258Z,25.39
2018-03-11T09:17:38.659Z,25.45
2018-03-11T09:18:40.068Z,25.79
2018-03-11T09:19:41.460Z,26.47
2018-03-11T09:20:42.871Z,26.76
2018-03-11T09:21:44.271Z,26.91
2018-03-11T09:22:45.673Z,27.05
2018-03-11T09:23:47.034Z,27.20
2018-03-11T09:24:48.450Z,27.83
2018-03-11T09:25:49.852Z,28.28
2018-03-11T09:26:51.253Z,28.80
2018-03-11T09:27:52.658Z,28.72
2018-03-11T09:28:54.067Z,28.89
2018-03-11T09:29:55.478Z,28.83
2018-03-11T09:30:56.880Z,28.28
2018-03-11T09:31:58.292Z,28.17
2018-03-11T09:32:59.689Z,28.48
2018-03-11T09:34:01.093Z,28.69
2018-03-11T09:35:02.507Z,28.85
2018-03-11T09:36:03.907Z,28.89
2018-03-11T09:37:05.309Z,28.48
2018-03-11T09:38:06.721Z,28.64
2018-03-11T09:39:08.130Z,29.25
2018-03-11T09:40:09.530Z,29.48
2018-03-11T09:41:10.894Z,29.60
2018-03-11T09:42:12.295Z,30.11
2018-03-11T09:43:13.703Z,30.07
2018-03-11T09:44:15.116Z,30.75
2018-03-11T09:45:16.521Z,31.03
2018-03-11T09:46:17.935Z,31.68
2018-03-11T09:47:19.360Z,31.82
2018-03-11T09:48:20.746Z,31.38
2018-03-11T09:49:22.178Z,31.31
2018-03-11T09:50:23.594Z,31.52
2018-03-11T09:51:25.016Z,31.20
2018-03-11T09:52:26.437Z,31.57
2018-03-11T09:53:27.836Z,31.42
2018-03-11T09:54:29.241Z,31.46
2018-03-11T09:55:30.666Z,31.19
2018-03-11T09:56:32.072Z,30.86
2018-03-11T09:57:33.491Z,30.46
2018-03-11T09:58:34.898Z,30.63
2018-03-11T09:59:36.307Z,30.06
2018-03-11T10:00:37.713Z,29.26
2018-03-11T10:01:39.121Z,28.65
2018-03-11T10:02:40.530Z,28.28
2018-03-11T10:03:41.950Z,27.80
2018-03-11T10:04:43.361Z,26.94
2018-03-11T10:05:44.781Z,25.75
2018-03-11T10:06:46.187Z,25.17
2018-03-11T10:07:47.594Z,24.89
2018-03-11T10:08:48.998Z,25.30
2018-03-11T10:09:50.427Z,26.01
2018-03-11T10:10:51.834Z,25.82
2018-03-11T10:11:53.231Z,26.09
2018-03-11T10:12:54.658Z,26.47
2018-03-11T10:13:56.065Z,26.93
2018-03-11T10:14:57.481Z,26.97
2018-03-11T10:15:59.722Z,26.00
2018-03-11T10:17:01.131Z,25.30
2018-03-11T10:18:02.623Z,25.17
2018-03-11T10:19:03.941Z,24.93
2018-03-11T10:20:05.347Z,25.34
2018-03-11T10:21:06.752Z,25.90
2018-03-11T10:22:08.150Z,25.85
2018-03-11T10:23:09.516Z,25.67
2018-03-11T10:24:10.927Z,25.39
2018-03-11T10:25:12.329Z,25.27
2018-03-11T10:26:13.749Z,25.34
2018-03-11T10:27:15.149Z,25.83
2018-03-11T10:28:16.579Z,25.12
2018-03-11T10:29:17.987Z,24.46
2018-03-11T10:30:19.389Z,23.92
2018-03-11T10:31:20.795Z,23.81
2018-03-11T10:32:23.100Z,23.79
2018-03-11T10:33:24.506Z,23.64
2018-03-11T10:34:25.896Z,23.96
2018-03-11T10:35:27.958Z,24.48
2018-03-11T10:36:29.363Z,24.61
2018-03-11T10:37:30.774Z,25.42
2018-03-11T10:38:32.166Z,26.29
2018-03-11T10:39:33.574Z,26.73
2018-03-11T10:40:34.991Z,27.76
2018-03-11T10:41:36.404Z,28.32
2018-03-11T10:42:37.780Z,28.85
2018-03-11T10:43:39.168Z,29.85
2018-03-11T10:44:40.598Z,29.94
2018-03-11T10:45:41.998Z,30.37
2018-03-11T10:46:43.404Z,31.23
2018-03-11T10:47:44.801Z,32.12
2018-03-11T10:48:46.208Z,31.91
2018-03-11T10:49:47.624Z,31.35
2018-03-11T10:50:49.035Z,30.90
2018-03-11T10:51:50.385Z,31.28
2018-03-11T10:52:51.749Z,30.94
2018-03-11T10:53:53.146Z,30.72
2018-03-11T10:54:54.559Z,30.57
2018-03-11T10:55:55.922Z,30.79
2018-03-11T10:56:57.330Z,31.04
2018-03-11T10:57:58.733Z,31.37
2018-03-11T10:59:00.154Z,31.53
2018-03-11T11:00:01.567Z,31.98
2018-03-11T11:01:02.971Z,31.72
2018-03-11T11:02:04.383Z,32.13
2018-03-11T11:03:05.791Z,32.39
2018-03-11T11:04:07.198Z,32.27
2018-03-11T11:05:08.590Z,31.69
2018-03-11T11:06:10.004Z,31.07
2018-03-11T11:07:11.416Z,31.16
2018-03-11T11:08:12.822Z,31.05
2018-03-11T11:09:14.264Z,30.54
2018-03-11T11:10:15.632Z,29.97
2018-03-11T11:11:17.050Z,29.66
2018-03-11T11:12:18.458Z,29.44
2018-03-11T11:13:19.829Z,29.03
2018-03-11T11:14:21.235Z,29.00
2018-03-11T11:15:22.597Z,29.17
2018-03-11T11:16:23.996Z,28.40
2018-03-11T11:17:25.410Z,28.08
2018-03-11T11:18:26.818Z,26.94
2018-03-11T11:19:28.238Z,26.27
2018-03-11T11:20:29.630Z,25.67
2018-03-11T11:21:31.045Z,25.35
2018-03-11T11:22:32.467Z,24.77
2018-03-11T11:23:33.877Z,24.59
2018-03-11T11:24:35.299Z,24.18
2018-03-11T11:25:36.752Z,23.86
2018-03-11T11:26:38.121Z,23.62
2018-03-11T11:27:39.523Z,23.63
2018-03-11T11:28:40.929Z,23.59
2018-03-11T11:29:42.331Z,23.67
2018-03-11T11:30:43.737Z,23.82
2018-03-11T11:31:45.135Z,24.27
2018-03-11T11:32:46.534Z,24.77
2018-03-11T11:33:47.931Z,25.27
2018-03-11T11:34:49.348Z,25.44
2018-03-11T11:35:50.755Z,25.36
2018-03-11T11:36:52.176Z,25.54
2018-03-11T11:37:53.589Z,25.63
2018-03-11T11:38:54.991Z,25.67
2018-03-11T11:39:56.387Z,25.83
2018-03-11T11:40:57.800Z,25.38
2018-03-11T11:41:59.212Z,25.17
2018-03-11T11:43:00.601Z,25.35
2018-03-11T11:44:02.010Z,25.51
2018-03-11T11:45:03.417Z,25.71
2018-03-11T11:46:04.857Z,25.22
2018-03-11T11:47:06.220Z,25.36
2018-03-11T11:48:07.628Z,26.09
2018-03-11T11:49:09.041Z,26.83
2018-03-11T11:50:10.442Z,27.31
2018-03-11T11:51:11.853Z,27.99
2018-03-11T11:52:13.265Z,28.72
2018-03-11T11:53:14.660Z,28.21
2018-03-11T11:54:16.067Z,28.15
2018-03-11T11:55:17.469Z,27.80
2018-03-11T11:56:18.876Z,27.43
2018-03-11T11:57:20.280Z,27.35
2018-03-11T11:58:21.685Z,26.90
2018-03-11T11:59:23.079Z,26.59
2018-03-11T12:00:24.492Z,26.23
2018-03-11T12:01:25.894Z,25.75
2018-03-11T12:02:27.307Z,25.31
2018-03-11T12:03:28.706Z,24.70
2018-03-11T12:04:30.108Z,24.59
2018-03-11T12:05:31.514Z,24.92
2018-03-11T12:06:32.923Z,25.24
2018-03-11T12:07:34.326Z,24.90
2018-03-11T12:08:35.731Z,25.12
2018-03-11T12:09:37.150Z,25.35
2018-03-11T12:10:38.564Z,25.34
2018-03-11T12:11:39.969Z,24.97
2018-03-11T12:12:41.382Z,24.98
2018-03-11T12:13:42.793Z,25.24
2018-03-11T12:14:44.205Z,24.97
2018-03-11T12:15:45.603Z,24.74
2018-03-11T12:16:47.011Z,23.90
2018-03-11T12:17:48.410Z,23.47
2018-03-11T12:18:49.812Z,23.31
2018-03-11T12:19:51.218Z,23.29
2018-03-11T12:20:52.623Z,23.00
2018-03-11T12:21:54.021Z,23.15
2018-03-11T12:22:55.420Z,23.12
2018-03-11T12:23:56.824Z,23.07
2018-03-11T12:24:58.235Z,22.96
2018-03-11T12:25:59.645Z,22.64
2018-03-11T12:27:01.011Z,22.59
2018-03-11T12:28:02.369Z,22.69
2018-03-11T12:29:03.782Z,22.46
2018-03-11T12:30:05.188Z,22.52
2018-03-11T12:31:06.594Z,22.85
2018-03-11T12:32:08.003Z,22.99
2018-03-11T12:33:09.375Z,23.12
2018-03-11T12:34:10.780Z,23.12
2018-03-11T12:35:12.175Z,23.37
2018-03-11T12:36:13.592Z,23.42
2018-03-11T12:37:14.993Z,23.44
2018-03-11T12:38:16.394Z,23.71
2018-03-11T12:39:17.816Z,23.94
2018-03-11T12:40:19.208Z,24.37
2018-03-11T12:41:20.615Z,24.55
2018-03-11T12:42:22.013Z,24.70
2018-03-11T12:43:23.429Z,24.12
2018-03-11T12:44:24.877Z,23.87
2018-03-11T12:45:26.267Z,23.26
2018-03-11T12:46:27.693Z,22.97
2018-03-11T12:47:29.168Z,22.60
2018-03-11T12:48:30.586Z,22.41
2018-03-11T12:49:31.988Z,22.41
2018-03-11T12:50:33.384Z,22.12
2018-03-11T12:51:34.755Z,21.45
2018-03-11T12:52:36.208Z,21.00
2018-03-11T12:53:37.557Z,20.60
2018-03-11T12:54:38.960Z,20.37
2018-03-11T12:55:40.371Z,20.66
2018-03-11T12:56:41.773Z,20.46
2018-03-11T12:57:43.185Z,20.56
2018-03-11T12:58:44.596Z,20.40
2018-03-11T12:59:45.991Z,20.15
2018-03-11T13:00:47.411Z,20.15
2018-03-11T13:01:48.830Z,20.01
2018-03-11T13:02:50.228Z,20.10
2018-03-11T13:03:51.643Z,20.20
2018-03-11T13:04:53.045Z,20.13
2018-03-11T13:05:54.483Z,19.76
2018-03-11T13:06:55.875Z,19.71
2018-03-11T13:07:57.318Z,19.23
2018-03-11T13:08:58.783Z,19.21
2018-03-11T13:10:00.082Z,19.25
2018-03-11T13:11:01.500Z,19.31
2018-03-11T13:12:02.897Z,19.10
2018-03-11T13:13:04.258Z,18.93
2018-03-11T13:14:05.640Z,18.75
2018-03-11T13:15:07.000Z,18.56
2018-03-11T13:16:08.357Z,18.35
2018-03-11T13:17:09.736Z,18.19
2018-03-11T13:18:11.105Z,18.07
2018-03-11T13:19:12.516Z,18.01
2018-03-11T13:20:13.926Z,17.94
2018-03-11T13:21:15.325Z,17.83
2018-03-11T13:22:16.722Z,17.68
2018-03-11T13:23:18.137Z,17.63
2018-03-11T13:24:19.523Z,17.66
2018-03-11T13:25:20.912Z,17.86
2018-03-11T13:26:23.205Z,17.89